Brewton, Alabama
Current Conditions -  °F | °C
As of 3:49 AM on Saturday 20 Dec 2014 (Local Time) from KGZH Reporting Station
Light Rain Light Rain  
Wind Chill: 44°   Ceiling: 700
Heat Index: 46°   Visibility: 7mi
Dew Point: 45°   Wind: 5mph
Humidity: 93%   Direction: 10°N
Pressure: 30.11"   Gusts: NA
Location:  31.1°N, 87.07°W
Report Text: KGZH 200949Z AUTO 01004KT 7SM -RA OVC007 08/07 A3011 RMK AO2 CIG 004V009 P0003
Loading
Personal Weather Stations






























Interactive Weather Map New forecast layout! Learn more

10-Day Weather Forecast

Advertisements
Track Severe Weather on mobile